createdAt,value
2018-09-19T00:01:29.807Z,17.80
2018-09-19T00:03:56.944Z,17.80
2018-09-19T00:06:24.069Z,17.70
2018-09-19T00:08:51.181Z,17.70
2018-09-19T00:11:18.298Z,17.60
2018-09-19T00:13:45.449Z,17.60
2018-09-19T00:16:12.563Z,17.60
2018-09-19T00:18:39.669Z,17.60
2018-09-19T00:21:06.796Z,17.60
2018-09-19T00:23:33.905Z,17.60
2018-09-19T00:26:01.108Z,17.60
2018-09-19T00:28:28.228Z,17.60
2018-09-19T00:30:55.349Z,17.60
2018-09-19T00:33:22.449Z,17.50
2018-09-19T00:35:49.729Z,17.50
2018-09-19T00:38:16.848Z,17.50
2018-09-19T00:40:44.009Z,17.60
2018-09-19T00:43:11.141Z,17.80
2018-09-19T00:45:38.321Z,17.80
2018-09-19T00:48:05.664Z,17.70
2018-09-19T00:50:32.817Z,17.80
2018-09-19T00:53:00.088Z,17.80
2018-09-19T00:55:27.265Z,17.80
2018-09-19T00:57:54.397Z,17.80
2018-09-19T01:00:21.533Z,17.80
2018-09-19T01:02:48.661Z,17.80
2018-09-19T01:05:15.981Z,17.80
2018-09-19T01:07:43.119Z,17.80
2018-09-19T01:10:10.265Z,17.80
2018-09-19T01:12:37.396Z,17.80
2018-09-19T01:15:04.598Z,17.70
2018-09-19T01:17:31.749Z,17.70
2018-09-19T01:19:58.928Z,17.60
2018-09-19T01:22:26.074Z,17.50
2018-09-19T01:24:53.205Z,17.50
2018-09-19T01:27:20.352Z,17.40
2018-09-19T01:29:47.496Z,17.40
2018-09-19T01:32:14.663Z,17.40
2018-09-19T01:34:41.813Z,17.30
2018-09-19T01:37:08.965Z,17.30
2018-09-19T01:39:36.110Z,17.20
2018-09-19T01:42:03.261Z,17.20
2018-09-19T01:44:30.408Z,17.20
2018-09-19T01:46:57.538Z,17.10
2018-09-19T01:49:24.667Z,17.00
2018-09-19T01:52:09.581Z,16.90
2018-09-19T01:54:36.742Z,16.90
2018-09-19T01:57:03.909Z,16.90
2018-09-19T01:59:31.055Z,16.80
2018-09-19T02:01:58.219Z,16.80
2018-09-19T02:04:25.377Z,16.90
2018-09-19T02:06:52.529Z,16.80
2018-09-19T02:09:19.687Z,16.80
2018-09-19T02:11:46.878Z,16.90
2018-09-19T02:14:14.038Z,17.00
2018-09-19T02:16:41.194Z,17.00
2018-09-19T02:19:08.669Z,17.00
2018-09-19T02:21:35.966Z,16.90
2018-09-19T02:24:03.139Z,17.00
2018-09-19T02:26:30.510Z,17.00
2018-09-19T02:28:57.672Z,17.00
2018-09-19T02:31:24.870Z,16.90
2018-09-19T02:33:52.316Z,16.90
2018-09-19T02:36:23.355Z,16.90
2018-09-19T02:38:51.818Z,16.90
2018-09-19T02:41:19.366Z,16.80
2018-09-19T02:43:46.794Z,16.80
2018-09-19T02:46:14.236Z,16.90
2018-09-19T02:48:41.633Z,17.00
2018-09-19T02:51:08.914Z,17.00
2018-09-19T02:53:36.023Z,17.10
2018-09-19T02:56:03.195Z,17.10
2018-09-19T02:58:30.345Z,17.00
2018-09-19T03:00:57.497Z,17.00
2018-09-19T03:03:24.712Z,16.90
2018-09-19T03:05:51.869Z,17.00
2018-09-19T03:08:19.022Z,17.00
2018-09-19T03:10:46.178Z,17.10
2018-09-19T03:13:13.336Z,17.10
2018-09-19T03:15:40.535Z,17.10
2018-09-19T03:18:07.690Z,17.00
2018-09-19T03:20:34.848Z,17.00
2018-09-19T03:23:02.020Z,17.00
2018-09-19T03:25:29.166Z,17.00
2018-09-19T03:27:56.339Z,17.00
2018-09-19T03:30:23.546Z,17.00
2018-09-19T03:32:50.709Z,16.90
2018-09-19T03:35:17.963Z,16.90
2018-09-19T03:37:45.118Z,16.80
2018-09-19T03:40:12.274Z,16.80
2018-09-19T03:42:39.406Z,16.70
2018-09-19T03:45:06.633Z,16.70
2018-09-19T03:47:33.765Z,16.60
2018-09-19T03:50:00.918Z,16.60
2018-09-19T03:52:28.058Z,16.50
2018-09-19T03:54:55.195Z,16.30
2018-09-19T03:57:22.323Z,16.20
2018-09-19T03:59:49.459Z,16.20
2018-09-19T04:02:16.590Z,16.20
2018-09-19T04:04:43.725Z,16.20
2018-09-19T04:07:10.855Z,16.10
2018-09-19T04:09:37.990Z,16.30
2018-09-19T04:12:05.194Z,16.30
2018-09-19T04:14:32.319Z,16.50
2018-09-19T04:16:59.454Z,16.50
2018-09-19T04:19:26.611Z,16.70
2018-09-19T04:21:53.725Z,16.70
2018-09-19T04:24:20.854Z,16.70
2018-09-19T04:26:48.008Z,16.80
2018-09-19T04:29:15.466Z,16.90
2018-09-19T04:31:42.811Z,17.00
2018-09-19T04:34:09.950Z,17.00
2018-09-19T04:36:37.102Z,17.00
2018-09-19T04:39:06.708Z,16.90
2018-09-19T04:41:33.865Z,16.90
2018-09-19T04:44:01.177Z,16.80
2018-09-19T04:46:28.326Z,16.70
2018-09-19T04:48:55.461Z,16.70
2018-09-19T04:51:22.654Z,16.70
2018-09-19T04:53:49.761Z,16.70
2018-09-19T04:56:16.922Z,16.70
2018-09-19T04:58:44.089Z,16.70
2018-09-19T05:01:11.251Z,16.70
2018-09-19T05:03:38.407Z,16.70
2018-09-19T05:06:05.591Z,16.70
2018-09-19T05:08:32.751Z,16.70
2018-09-19T05:10:59.955Z,16.60
2018-09-19T05:13:27.111Z,16.60
2018-09-19T05:15:54.280Z,16.60
2018-09-19T05:18:21.432Z,16.60
2018-09-19T05:20:48.599Z,16.50
2018-09-19T05:23:15.750Z,16.50
2018-09-19T05:25:42.920Z,16.40
2018-09-19T05:28:10.098Z,16.40
2018-09-19T05:30:37.219Z,16.30
2018-09-19T05:33:04.390Z,16.30
2018-09-19T05:35:31.558Z,16.30
2018-09-19T05:37:58.708Z,16.20
2018-09-19T05:40:25.870Z,16.10
2018-09-19T05:42:53.038Z,16.20
2018-09-19T05:45:20.198Z,16.30
2018-09-19T05:47:47.350Z,16.30
2018-09-19T05:50:14.495Z,16.40
2018-09-19T05:52:41.681Z,16.30
2018-09-19T05:55:08.934Z,16.30
2018-09-19T05:57:36.085Z,16.30
2018-09-19T06:00:03.734Z,16.40
2018-09-19T06:02:30.935Z,16.50
2018-09-19T06:04:58.158Z,16.60
2018-09-19T06:07:25.410Z,16.80
2018-09-19T06:09:52.577Z,17.30
2018-09-19T06:12:19.735Z,18.00
2018-09-19T06:14:46.891Z,18.30
2018-09-19T06:17:14.218Z,19.10
2018-09-19T06:19:41.438Z,20.00
2018-09-19T06:22:08.832Z,20.00
2018-09-19T06:24:36.262Z,19.60
2018-09-19T06:27:03.454Z,19.40
2018-09-19T06:29:30.606Z,19.60
2018-09-19T06:31:57.845Z,20.80
2018-09-19T06:34:26.597Z,22.10
2018-09-19T06:36:53.847Z,23.40
2018-09-19T06:39:20.974Z,24.20
2018-09-19T06:41:48.114Z,24.60
2018-09-19T06:44:15.303Z,25.40
2018-09-19T06:46:42.460Z,26.10
2018-09-19T06:49:09.696Z,26.40
2018-09-19T06:51:36.841Z,26.50
2018-09-19T06:54:03.967Z,26.80
2018-09-19T06:56:31.126Z,26.90
2018-09-19T06:58:58.273Z,27.10
2018-09-19T07:01:25.457Z,27.10
2018-09-19T07:03:52.614Z,27.00
2018-09-19T07:06:19.919Z,27.10
2018-09-19T07:08:47.230Z,27.20
2018-09-19T07:11:14.498Z,27.40
2018-09-19T07:13:41.737Z,27.40
2018-09-19T07:16:08.873Z,26.90
2018-09-19T07:18:36.023Z,26.60
2018-09-19T07:21:03.179Z,26.90
2018-09-19T07:23:30.306Z,27.10
2018-09-19T07:25:57.551Z,27.40
2018-09-19T07:28:24.714Z,27.50
2018-09-19T07:30:51.998Z,28.20
2018-09-19T07:33:19.158Z,27.90
2018-09-19T07:35:46.310Z,28.10
2018-09-19T07:38:13.602Z,28.40
2018-09-19T07:40:40.759Z,28.70
2018-09-19T07:43:07.896Z,28.70
2018-09-19T07:45:35.043Z,29.00
2018-09-19T07:48:02.247Z,29.60
2018-09-19T07:50:29.557Z,28.90
2018-09-19T07:53:00.212Z,29.50
2018-09-19T07:55:28.240Z,30.10
2018-09-19T07:57:55.916Z,29.90
2018-09-19T08:00:23.064Z,29.90
2018-09-19T08:02:50.257Z,29.70
2018-09-19T08:05:17.487Z,30.30
2018-09-19T08:07:44.626Z,30.80
2018-09-19T08:10:11.762Z,30.60
2018-09-19T08:12:38.975Z,30.40
2018-09-19T08:15:06.137Z,30.40
2018-09-19T08:17:33.374Z,30.80
2018-09-19T08:20:00.550Z,31.70
2018-09-19T08:22:27.755Z,31.40
2018-09-19T08:24:54.910Z,31.40
2018-09-19T08:27:22.203Z,31.50
2018-09-19T08:29:49.412Z,32.30
2018-09-19T08:32:16.649Z,32.40
2018-09-19T08:34:43.830Z,32.70
2018-09-19T08:37:10.973Z,32.20
2018-09-19T08:39:38.277Z,32.50
2018-09-19T08:42:05.603Z,32.10
2018-09-19T08:44:32.796Z,32.90
2018-09-19T08:46:59.960Z,32.80
2018-09-19T08:49:27.121Z,33.20
2018-09-19T08:51:54.279Z,33.80
2018-09-19T08:54:21.444Z,33.40
2018-09-19T08:56:48.593Z,33.50
2018-09-19T08:59:15.758Z,33.20
2018-09-19T09:01:42.983Z,33.50
2018-09-19T09:04:10.158Z,33.80
2018-09-19T09:06:37.358Z,33.80
2018-09-19T09:09:05.592Z,34.60
2018-09-19T09:11:32.762Z,33.40
2018-09-19T09:13:59.937Z,33.10
2018-09-19T09:16:27.143Z,33.40
2018-09-19T09:18:54.580Z,33.50
2018-09-19T09:21:22.047Z,33.50
2018-09-19T09:23:49.477Z,33.80
2018-09-19T09:26:16.668Z,33.60
2018-09-19T09:28:43.825Z,33.80
2018-09-19T09:31:11.027Z,33.70
2018-09-19T09:33:38.151Z,33.80
2018-09-19T09:36:05.625Z,33.30
2018-09-19T09:38:32.965Z,32.60
2018-09-19T09:41:00.098Z,32.20
2018-09-19T09:43:27.288Z,32.00
2018-09-19T09:45:54.447Z,32.00
2018-09-19T09:48:21.673Z,32.40
2018-09-19T09:50:48.856Z,32.50
2018-09-19T09:53:16.066Z,32.60
2018-09-19T09:55:43.170Z,33.10
2018-09-19T09:58:10.368Z,33.70
2018-09-19T10:00:39.487Z,34.40
2018-09-19T10:03:07.160Z,34.00
2018-09-19T10:05:34.297Z,33.80
2018-09-19T10:08:01.546Z,33.80
2018-09-19T10:10:28.793Z,33.60
2018-09-19T10:12:55.947Z,33.70
2018-09-19T10:15:23.099Z,33.90
2018-09-19T10:17:50.266Z,34.40
2018-09-19T10:20:17.431Z,34.20
2018-09-19T10:22:44.667Z,33.90
2018-09-19T10:25:11.892Z,34.00
2018-09-19T10:27:39.021Z,34.50
2018-09-19T10:30:06.179Z,34.70
2018-09-19T10:32:33.380Z,35.00
2018-09-19T10:35:00.512Z,34.60
2018-09-19T10:37:27.682Z,33.60
2018-09-19T10:39:54.817Z,34.30
2018-09-19T10:42:21.971Z,34.70
2018-09-19T10:44:49.115Z,34.30
2018-09-19T10:47:16.371Z,33.80
2018-09-19T10:49:43.520Z,33.30
2018-09-19T10:52:10.732Z,33.00
2018-09-19T10:54:37.878Z,32.50
2018-09-19T10:57:05.303Z,32.70
2018-09-19T10:59:32.423Z,33.00
2018-09-19T11:01:59.693Z,33.10
2018-09-19T11:04:26.843Z,33.10
2018-09-19T11:06:54.019Z,33.30
2018-09-19T11:09:21.162Z,33.30
2018-09-19T11:11:48.302Z,33.40
2018-09-19T11:14:15.444Z,33.70
2018-09-19T11:16:42.732Z,32.90
2018-09-19T11:19:09.884Z,32.80
2018-09-19T11:21:37.030Z,32.80
2018-09-19T11:24:04.206Z,32.80
2018-09-19T11:26:31.391Z,32.50
2018-09-19T11:28:58.515Z,31.80
2018-09-19T11:31:25.677Z,31.10
2018-09-19T11:33:52.823Z,30.70
2018-09-19T11:36:20.066Z,31.00
2018-09-19T11:38:47.252Z,30.90
2018-09-19T11:41:14.414Z,31.00
2018-09-19T11:43:41.571Z,31.00
2018-09-19T11:46:08.775Z,31.00
2018-09-19T11:48:35.939Z,31.20
2018-09-19T11:51:03.103Z,31.10
2018-09-19T11:53:30.270Z,31.40
